sensor_id;sensor_type;location;lat;lon;timestamp;P1;durP1;ratioP1;P2;durP2;ratioP2
72109;SDS011;59983;52.010;5.420;2023-06-26T00:01:03;10.15;;;9.18;;
72109;SDS011;59983;52.010;5.420;2023-06-26T00:03:31;10.45;;;9.57;;
72109;SDS011;59983;52.010;5.420;2023-06-26T00:05:59;9.82;;;9.13;;
72109;SDS011;59983;52.010;5.420;2023-06-26T00:08:27;9.73;;;8.95;;
72109;SDS011;59983;52.010;5.420;2023-06-26T00:10:54;10.80;;;9.90;;
72109;SDS011;59983;52.010;5.420;2023-06-26T00:13:22;14.43;;;10.60;;
72109;SDS011;59983;52.010;5.420;2023-06-26T00:15:50;11.18;;;10.27;;
72109;SDS011;59983;52.010;5.420;2023-06-26T00:18:17;13.77;;;10.48;;
72109;SDS011;59983;52.010;5.420;2023-06-26T00:20:43;12.40;;;11.20;;
72109;SDS011;59983;52.010;5.420;2023-06-26T00:23:11;14.53;;;11.60;;
72109;SDS011;59983;52.010;5.420;2023-06-26T00:25:38;13.52;;;11.88;;
72109;SDS011;59983;52.010;5.420;2023-06-26T00:28:04;11.15;;;10.23;;
72109;SDS011;59983;52.010;5.420;2023-06-26T00:30:31;11.25;;;10.10;;
72109;SDS011;59983;52.010;5.420;2023-06-26T00:32:57;11.25;;;10.13;;
72109;SDS011;59983;52.010;5.420;2023-06-26T00:35:24;10.77;;;9.77;;
72109;SDS011;59983;52.010;5.420;2023-06-26T00:37:50;11.90;;;10.25;;
72109;SDS011;59983;52.010;5.420;2023-06-26T00:40:17;11.68;;;10.63;;
72109;SDS011;59983;52.010;5.420;2023-06-26T00:42:44;10.95;;;10.05;;
72109;SDS011;59983;52.010;5.420;2023-06-26T00:45:10;10.93;;;9.98;;
72109;SDS011;59983;52.010;5.420;2023-06-26T00:47:37;10.50;;;9.50;;
72109;SDS011;59983;52.010;5.420;2023-06-26T00:50:04;10.60;;;9.70;;
72109;SDS011;59983;52.010;5.420;2023-06-26T00:52:31;10.48;;;9.48;;
72109;SDS011;59983;52.010;5.420;2023-06-26T00:54:58;11.13;;;9.88;;
72109;SDS011;59983;52.010;5.420;2023-06-26T00:57:25;10.20;;;9.30;;
72109;SDS011;59983;52.010;5.420;2023-06-26T00:59:53;10.33;;;9.47;;
72109;SDS011;59983;52.010;5.420;2023-06-26T01:02:20;10.82;;;9.75;;
72109;SDS011;59983;52.010;5.420;2023-06-26T01:04:47;10.57;;;9.57;;
72109;SDS011;59983;52.010;5.420;2023-06-26T01:07:17;13.73;;;10.05;;
72109;SDS011;59983;52.010;5.420;2023-06-26T01:09:46;14.00;;;9.60;;
72109;SDS011;59983;52.010;5.420;2023-06-26T01:12:14;11.57;;;10.30;;
72109;SDS011;59983;52.010;5.420;2023-06-26T01:14:41;11.95;;;10.00;;
72109;SDS011;59983;52.010;5.420;2023-06-26T01:17:08;8.90;;;8.18;;
72109;SDS011;59983;52.010;5.420;2023-06-26T01:19:38;11.45;;;9.27;;
72109;SDS011;59983;52.010;5.420;2023-06-26T01:27:30;11.18;;;5.38;;
72109;SDS011;59983;52.010;5.420;2023-06-26T01:30:02;7.00;;;6.30;;
72109;SDS011;59983;52.010;5.420;2023-06-26T01:32:31;10.20;;;6.10;;
72109;SDS011;59983;52.010;5.420;2023-06-26T01:34:58;6.90;;;5.72;;
72109;SDS011;59983;52.010;5.420;2023-06-26T01:37:25;7.80;;;5.47;;
72109;SDS011;59983;52.010;5.420;2023-06-26T01:39:52;7.07;;;5.60;;
72109;SDS011;59983;52.010;5.420;2023-06-26T01:42:18;5.70;;;4.82;;
72109;SDS011;59983;52.010;5.420;2023-06-26T01:44:45;6.20;;;5.60;;
72109;SDS011;59983;52.010;5.420;2023-06-26T01:47:14;7.47;;;5.07;;
72109;SDS011;59983;52.010;5.420;2023-06-26T01:49:47;9.40;;;5.37;;
72109;SDS011;59983;52.010;5.420;2023-06-26T01:52:24;8.00;;;5.63;;
72109;SDS011;59983;52.010;5.420;2023-06-26T01:57:36;8.35;;;5.22;;
72109;SDS011;59983;52.010;5.420;2023-06-26T02:00:05;10.45;;;4.72;;
72109;SDS011;59983;52.010;5.420;2023-06-26T02:02:36;6.67;;;5.37;;
72109;SDS011;59983;52.010;5.420;2023-06-26T02:05:03;6.72;;;4.32;;
72109;SDS011;59983;52.010;5.420;2023-06-26T02:07:30;7.10;;;4.72;;
72109;SDS011;59983;52.010;5.420;2023-06-26T02:09:56;7.22;;;4.35;;
72109;SDS011;59983;52.010;5.420;2023-06-26T02:12:23;8.88;;;4.85;;
72109;SDS011;59983;52.010;5.420;2023-06-26T02:14:49;7.37;;;4.63;;
72109;SDS011;59983;52.010;5.420;2023-06-26T02:17:17;5.28;;;4.78;;
72109;SDS011;59983;52.010;5.420;2023-06-26T02:19:44;7.68;;;4.97;;
72109;SDS011;59983;52.010;5.420;2023-06-26T02:22:14;6.97;;;4.85;;
72109;SDS011;59983;52.010;5.420;2023-06-26T02:24:41;8.10;;;4.80;;
72109;SDS011;59983;52.010;5.420;2023-06-26T02:27:09;12.60;;;4.47;;
72109;SDS011;59983;52.010;5.420;2023-06-26T02:29:36;12.00;;;5.18;;
72109;SDS011;59983;52.010;5.420;2023-06-26T02:32:03;5.65;;;4.80;;
72109;SDS011;59983;52.010;5.420;2023-06-26T02:34:29;7.72;;;4.78;;
72109;SDS011;59983;52.010;5.420;2023-06-26T02:36:56;8.30;;;4.85;;
72109;SDS011;59983;52.010;5.420;2023-06-26T02:39:24;9.97;;;5.20;;
72109;SDS011;59983;52.010;5.420;2023-06-26T02:41:51;17.55;;;5.85;;
72109;SDS011;59983;52.010;5.420;2023-06-26T02:44:18;9.60;;;6.50;;
72109;SDS011;59983;52.010;5.420;2023-06-26T02:46:44;13.10;;;5.78;;
72109;SDS011;59983;52.010;5.420;2023-06-26T02:49:11;8.90;;;5.70;;
72109;SDS011;59983;52.010;5.420;2023-06-26T02:51:38;14.00;;;6.40;;
72109;SDS011;59983;52.010;5.420;2023-06-26T02:54:04;9.35;;;5.93;;
72109;SDS011;59983;52.010;5.420;2023-06-26T02:56:31;10.80;;;5.30;;
72109;SDS011;59983;52.010;5.420;2023-06-26T02:58:58;12.23;;;5.68;;
72109;SDS011;59983;52.010;5.420;2023-06-26T03:01:24;7.32;;;5.93;;
72109;SDS011;59983;52.010;5.420;2023-06-26T03:03:51;8.20;;;6.00;;
72109;SDS011;59983;52.010;5.420;2023-06-26T03:06:18;11.40;;;6.97;;
72109;SDS011;59983;52.010;5.420;2023-06-26T03:08:44;9.15;;;6.32;;
72109;SDS011;59983;52.010;5.420;2023-06-26T03:11:11;12.25;;;6.20;;
72109;SDS011;59983;52.010;5.420;2023-06-26T03:13:37;9.25;;;5.30;;
72109;SDS011;59983;52.010;5.420;2023-06-26T03:16:04;8.50;;;5.30;;
72109;SDS011;59983;52.010;5.420;2023-06-26T03:18:31;9.48;;;6.05;;
72109;SDS011;59983;52.010;5.420;2023-06-26T03:20:57;13.75;;;6.90;;
72109;SDS011;59983;52.010;5.420;2023-06-26T03:23:24;13.57;;;6.35;;
72109;SDS011;59983;52.010;5.420;2023-06-26T03:25:51;11.65;;;6.40;;
72109;SDS011;59983;52.010;5.420;2023-06-26T03:28:17;10.30;;;6.80;;
72109;SDS011;59983;52.010;5.420;2023-06-26T03:30:44;12.30;;;6.93;;
72109;SDS011;59983;52.010;5.420;2023-06-26T03:33:11;16.60;;;6.68;;
72109;SDS011;59983;52.010;5.420;2023-06-26T03:35:37;12.48;;;6.50;;
72109;SDS011;59983;52.010;5.420;2023-06-26T03:38:04;13.95;;;5.97;;
72109;SDS011;59983;52.010;5.420;2023-06-26T03:40:31;16.07;;;7.23;;
72109;SDS011;59983;52.010;5.420;2023-06-26T03:42:58;13.32;;;6.70;;
72109;SDS011;59983;52.010;5.420;2023-06-26T03:45:24;11.10;;;6.68;;
72109;SDS011;59983;52.010;5.420;2023-06-26T03:47:51;9.13;;;6.15;;
72109;SDS011;59983;52.010;5.420;2023-06-26T03:50:17;17.98;;;6.70;;
72109;SDS011;59983;52.010;5.420;2023-06-26T03:52:44;14.47;;;7.07;;
72109;SDS011;59983;52.010;5.420;2023-06-26T03:55:11;17.67;;;7.15;;
72109;SDS011;59983;52.010;5.420;2023-06-26T03:57:38;16.48;;;7.53;;
72109;SDS011;59983;52.010;5.420;2023-06-26T04:00:04;15.10;;;8.07;;
72109;SDS011;59983;52.010;5.420;2023-06-26T04:02:34;15.85;;;7.45;;
72109;SDS011;59983;52.010;5.420;2023-06-26T04:05:01;14.97;;;7.53;;
72109;SDS011;59983;52.010;5.420;2023-06-26T04:07:30;15.23;;;7.40;;
72109;SDS011;59983;52.010;5.420;2023-06-26T04:09:57;17.10;;;6.82;;
72109;SDS011;59983;52.010;5.420;2023-06-26T04:12:24;11.60;;;7.57;;
72109;SDS011;59983;52.010;5.420;2023-06-26T04:14:50;10.80;;;6.60;;
72109;SDS011;59983;52.010;5.420;2023-06-26T04:17:17;15.30;;;7.10;;
72109;SDS011;59983;52.010;5.420;2023-06-26T04:19:44;12.82;;;6.75;;
72109;SDS011;59983;52.010;5.420;2023-06-26T04:22:10;12.52;;;6.70;;
72109;SDS011;59983;52.010;5.420;2023-06-26T04:24:37;13.70;;;5.95;;
72109;SDS011;59983;52.010;5.420;2023-06-26T04:27:03;11.50;;;6.55;;
72109;SDS011;59983;52.010;5.420;2023-06-26T04:29:30;11.50;;;6.33;;
72109;SDS011;59983;52.010;5.420;2023-06-26T04:31:57;12.32;;;6.93;;
72109;SDS011;59983;52.010;5.420;2023-06-26T04:34:25;11.55;;;6.32;;
72109;SDS011;59983;52.010;5.420;2023-06-26T04:36:52;11.80;;;6.80;;
72109;SDS011;59983;52.010;5.420;2023-06-26T04:39:19;9.98;;;6.07;;
72109;SDS011;59983;52.010;5.420;2023-06-26T04:41:46;14.87;;;6.47;;
72109;SDS011;59983;52.010;5.420;2023-06-26T04:44:13;11.13;;;5.90;;
72109;SDS011;59983;52.010;5.420;2023-06-26T04:46:39;15.85;;;5.68;;
72109;SDS011;59983;52.010;5.420;2023-06-26T04:49:10;13.07;;;5.88;;
72109;SDS011;59983;52.010;5.420;2023-06-26T04:51:37;10.05;;;6.53;;
72109;SDS011;59983;52.010;5.420;2023-06-26T04:54:12;9.97;;;5.70;;
72109;SDS011;59983;52.010;5.420;2023-06-26T04:56:39;8.32;;;6.13;;
72109;SDS011;59983;52.010;5.420;2023-06-26T04:59:06;9.65;;;6.22;;
72109;SDS011;59983;52.010;5.420;2023-06-26T05:01:33;10.85;;;6.13;;
72109;SDS011;59983;52.010;5.420;2023-06-26T05:03:59;9.73;;;5.63;;
72109;SDS011;59983;52.010;5.420;2023-06-26T05:06:26;12.43;;;5.70;;
72109;SDS011;59983;52.010;5.420;2023-06-26T05:08:52;9.55;;;5.35;;
72109;SDS011;59983;52.010;5.420;2023-06-26T05:11:19;8.98;;;5.78;;
72109;SDS011;59983;52.010;5.420;2023-06-26T05:13:45;6.53;;;4.90;;
72109;SDS011;59983;52.010;5.420;2023-06-26T05:16:12;9.25;;;5.88;;
72109;SDS011;59983;52.010;5.420;2023-06-26T05:18:38;8.47;;;5.37;;
72109;SDS011;59983;52.010;5.420;2023-06-26T05:21:05;7.50;;;4.82;;
72109;SDS011;59983;52.010;5.420;2023-06-26T05:23:32;8.45;;;5.43;;
72109;SDS011;59983;52.010;5.420;2023-06-26T05:26:01;6.70;;;5.22;;
72109;SDS011;59983;52.010;5.420;2023-06-26T05:28:29;6.78;;;5.32;;
72109;SDS011;59983;52.010;5.420;2023-06-26T05:30:58;9.50;;;5.43;;
72109;SDS011;59983;52.010;5.420;2023-06-26T05:33:25;6.18;;;4.57;;
72109;SDS011;59983;52.010;5.420;2023-06-26T05:35:53;9.77;;;5.38;;
72109;SDS011;59983;52.010;5.420;2023-06-26T05:38:20;7.10;;;4.60;;
72109;SDS011;59983;52.010;5.420;2023-06-26T05:40:47;6.18;;;4.65;;
72109;SDS011;59983;52.010;5.420;2023-06-26T05:43:14;9.73;;;5.23;;
72109;SDS011;59983;52.010;5.420;2023-06-26T05:45:41;6.47;;;5.07;;
72109;SDS011;59983;52.010;5.420;2023-06-26T05:48:07;8.32;;;4.72;;
72109;SDS011;59983;52.010;5.420;2023-06-26T05:50:34;5.40;;;4.50;;
72109;SDS011;59983;52.010;5.420;2023-06-26T05:53:02;6.68;;;4.35;;
72109;SDS011;59983;52.010;5.420;2023-06-26T05:55:31;11.03;;;4.80;;
72109;SDS011;59983;52.010;5.420;2023-06-26T05:57:58;8.75;;;4.50;;
72109;SDS011;59983;52.010;5.420;2023-06-26T06:00:27;8.25;;;4.28;;
72109;SDS011;59983;52.010;5.420;2023-06-26T06:02:54;6.75;;;4.03;;
72109;SDS011;59983;52.010;5.420;2023-06-26T06:05:21;6.15;;;4.25;;
72109;SDS011;59983;52.010;5.420;2023-06-26T06:07:48;6.57;;;4.87;;
72109;SDS011;59983;52.010;5.420;2023-06-26T06:10:16;7.13;;;4.60;;
72109;SDS011;59983;52.010;5.420;2023-06-26T06:12:42;5.72;;;3.88;;
72109;SDS011;59983;52.010;5.420;2023-06-26T06:15:09;9.35;;;4.55;;
72109;SDS011;59983;52.010;5.420;2023-06-26T06:17:36;5.82;;;4.93;;
72109;SDS011;59983;52.010;5.420;2023-06-26T06:20:02;11.30;;;4.50;;
72109;SDS011;59983;52.010;5.420;2023-06-26T06:22:29;8.10;;;4.18;;
72109;SDS011;59983;52.010;5.420;2023-06-26T06:24:56;6.85;;;4.22;;
72109;SDS011;59983;52.010;5.420;2023-06-26T06:27:23;4.32;;;4.00;;
72109;SDS011;59983;52.010;5.420;2023-06-26T06:29:49;8.15;;;3.55;;
72109;SDS011;59983;52.010;5.420;2023-06-26T06:32:16;6.80;;;3.90;;
72109;SDS011;59983;52.010;5.420;2023-06-26T06:34:42;5.07;;;3.97;;
72109;SDS011;59983;52.010;5.420;2023-06-26T06:37:09;5.50;;;4.07;;
72109;SDS011;59983;52.010;5.420;2023-06-26T06:39:35;6.80;;;4.72;;
72109;SDS011;59983;52.010;5.420;2023-06-26T06:42:02;7.80;;;3.90;;
72109;SDS011;59983;52.010;5.420;2023-06-26T06:44:29;14.03;;;4.47;;
72109;SDS011;59983;52.010;5.420;2023-06-26T06:46:56;7.88;;;4.60;;
72109;SDS011;59983;52.010;5.420;2023-06-26T06:49:23;7.63;;;4.50;;
72109;SDS011;59983;52.010;5.420;2023-06-26T06:51:50;8.88;;;4.70;;
72109;SDS011;59983;52.010;5.420;2023-06-26T06:54:16;8.65;;;3.90;;
72109;SDS011;59983;52.010;5.420;2023-06-26T06:56:43;6.97;;;4.13;;
72109;SDS011;59983;52.010;5.420;2023-06-26T06:59:10;4.25;;;3.88;;
72109;SDS011;59983;52.010;5.420;2023-06-26T07:01:36;5.00;;;4.20;;
72109;SDS011;59983;52.010;5.420;2023-06-26T07:04:03;4.45;;;4.10;;
72109;SDS011;59983;52.010;5.420;2023-06-26T07:06:30;5.43;;;3.83;;
72109;SDS011;59983;52.010;5.420;2023-06-26T07:08:57;6.23;;;5.10;;
72109;SDS011;59983;52.010;5.420;2023-06-26T07:11:23;4.53;;;3.60;;
72109;SDS011;59983;52.010;5.420;2023-06-26T07:13:50;6.47;;;3.53;;
72109;SDS011;59983;52.010;5.420;2023-06-26T07:16:16;5.32;;;3.67;;
72109;SDS011;59983;52.010;5.420;2023-06-26T07:18:43;5.10;;;3.88;;
72109;SDS011;59983;52.010;5.420;2023-06-26T07:21:10;6.10;;;3.43;;
72109;SDS011;59983;52.010;5.420;2023-06-26T07:23:36;8.57;;;4.10;;
72109;SDS011;59983;52.010;5.420;2023-06-26T07:26:03;4.55;;;3.60;;
72109;SDS011;59983;52.010;5.420;2023-06-26T07:28:29;8.85;;;4.45;;
72109;SDS011;59983;52.010;5.420;2023-06-26T07:30:56;4.38;;;3.85;;
72109;SDS011;59983;52.010;5.420;2023-06-26T07:33:22;10.87;;;4.53;;
72109;SDS011;59983;52.010;5.420;2023-06-26T07:35:49;7.13;;;3.50;;
72109;SDS011;59983;52.010;5.420;2023-06-26T07:38:16;4.75;;;3.30;;
72109;SDS011;59983;52.010;5.420;2023-06-26T07:40:42;7.53;;;3.80;;
72109;SDS011;59983;52.010;5.420;2023-06-26T07:43:09;4.15;;;3.75;;
72109;SDS011;59983;52.010;5.420;2023-06-26T07:45:35;6.07;;;3.87;;
72109;SDS011;59983;52.010;5.420;2023-06-26T07:48:02;5.50;;;3.38;;
72109;SDS011;59983;52.010;5.420;2023-06-26T07:50:29;4.97;;;3.70;;
72109;SDS011;59983;52.010;5.420;2023-06-26T07:52:55;6.15;;;3.78;;
72109;SDS011;59983;52.010;5.420;2023-06-26T07:55:22;5.00;;;3.35;;
72109;SDS011;59983;52.010;5.420;2023-06-26T07:57:48;7.07;;;3.50;;
72109;SDS011;59983;52.010;5.420;2023-06-26T08:00:18;5.63;;;3.70;;
72109;SDS011;59983;52.010;5.420;2023-06-26T08:02:45;7.20;;;4.15;;
72109;SDS011;59983;52.010;5.420;2023-06-26T08:05:11;5.85;;;3.22;;
72109;SDS011;59983;52.010;5.420;2023-06-26T08:07:38;5.55;;;3.60;;
72109;SDS011;59983;52.010;5.420;2023-06-26T08:10:05;6.00;;;3.17;;
72109;SDS011;59983;52.010;5.420;2023-06-26T08:12:32;4.90;;;3.80;;
72109;SDS011;59983;52.010;5.420;2023-06-26T08:14:58;13.85;;;3.33;;
72109;SDS011;59983;52.010;5.420;2023-06-26T08:17:27;3.80;;;3.22;;
72109;SDS011;59983;52.010;5.420;2023-06-26T08:19:55;9.30;;;4.63;;
72109;SDS011;59983;52.010;5.420;2023-06-26T08:22:23;6.63;;;3.50;;
72109;SDS011;59983;52.010;5.420;2023-06-26T08:24:49;5.45;;;3.00;;
72109;SDS011;59983;52.010;5.420;2023-06-26T08:27:16;7.10;;;3.35;;
72109;SDS011;59983;52.010;5.420;2023-06-26T08:29:45;4.82;;;3.15;;
72109;SDS011;59983;52.010;5.420;2023-06-26T08:32:11;3.67;;;2.60;;
72109;SDS011;59983;52.010;5.420;2023-06-26T08:34:38;4.23;;;2.50;;
72109;SDS011;59983;52.010;5.420;2023-06-26T08:37:05;4.28;;;2.15;;
72109;SDS011;59983;52.010;5.420;2023-06-26T08:39:33;12.02;;;3.00;;
72109;SDS011;59983;52.010;5.420;2023-06-26T08:42:00;2.45;;;2.08;;
72109;SDS011;59983;52.010;5.420;2023-06-26T08:44:26;3.33;;;2.00;;
72109;SDS011;59983;52.010;5.420;2023-06-26T08:46:53;6.03;;;1.90;;
72109;SDS011;59983;52.010;5.420;2023-06-26T08:50:04;1.90;;;1.67;;
72109;SDS011;59983;52.010;5.420;2023-06-26T08:52:30;5.55;;;2.40;;
72109;SDS011;59983;52.010;5.420;2023-06-26T08:55:00;3.95;;;2.42;;
72109;SDS011;59983;52.010;5.420;2023-06-26T08:57:28;2.50;;;1.85;;
72109;SDS011;59983;52.010;5.420;2023-06-26T08:59:58;3.93;;;1.93;;
72109;SDS011;59983;52.010;5.420;2023-06-26T09:02:25;2.90;;;1.85;;
72109;SDS011;59983;52.010;5.420;2023-06-26T09:04:51;5.47;;;2.30;;
72109;SDS011;59983;52.010;5.420;2023-06-26T09:07:18;2.58;;;1.85;;
72109;SDS011;59983;52.010;5.420;2023-06-26T09:09:45;10.00;;;2.42;;
72109;SDS011;59983;52.010;5.420;2023-06-26T09:12:12;5.40;;;2.30;;
72109;SDS011;59983;52.010;5.420;2023-06-26T09:14:39;4.80;;;2.20;;
72109;SDS011;59983;52.010;5.420;2023-06-26T09:17:07;3.28;;;2.40;;
72109;SDS011;59983;52.010;5.420;2023-06-26T09:19:36;5.68;;;2.38;;
72109;SDS011;59983;52.010;5.420;2023-06-26T09:22:03;5.00;;;2.30;;
72109;SDS011;59983;52.010;5.420;2023-06-26T09:24:30;5.77;;;2.53;;
72109;SDS011;59983;52.010;5.420;2023-06-26T09:26:56;3.15;;;2.00;;
72109;SDS011;59983;52.010;5.420;2023-06-26T09:29:23;2.17;;;1.90;;
72109;SDS011;59983;52.010;5.420;2023-06-26T09:31:51;3.33;;;1.98;;
72109;SDS011;59983;52.010;5.420;2023-06-26T09:34:18;5.85;;;2.13;;
72109;SDS011;59983;52.010;5.420;2023-06-26T09:36:46;6.60;;;1.73;;
72109;SDS011;59983;52.010;5.420;2023-06-26T09:39:14;2.90;;;2.20;;
72109;SDS011;59983;52.010;5.420;2023-06-26T09:41:41;4.45;;;2.30;;
72109;SDS011;59983;52.010;5.420;2023-06-26T09:44:10;4.53;;;2.15;;
72109;SDS011;59983;52.010;5.420;2023-06-26T09:46:38;3.70;;;1.80;;
72109;SDS011;59983;52.010;5.420;2023-06-26T09:49:07;2.37;;;2.00;;
72109;SDS011;59983;52.010;5.420;2023-06-26T09:51:35;3.13;;;1.80;;
72109;SDS011;59983;52.010;5.420;2023-06-26T09:54:03;5.57;;;1.67;;
72109;SDS011;59983;52.010;5.420;2023-06-26T09:56:31;2.75;;;1.83;;
72109;SDS011;59983;52.010;5.420;2023-06-26T09:58:59;16.92;;;2.67;;
72109;SDS011;59983;52.010;5.420;2023-06-26T10:01:27;1.80;;;1.70;;
72109;SDS011;59983;52.010;5.420;2023-06-26T10:03:55;4.15;;;1.88;;
72109;SDS011;59983;52.010;5.420;2023-06-26T10:06:30;6.25;;;1.80;;
72109;SDS011;59983;52.010;5.420;2023-06-26T10:08:59;4.78;;;1.80;;
72109;SDS011;59983;52.010;5.420;2023-06-26T10:11:29;5.45;;;1.55;;
72109;SDS011;59983;52.010;5.420;2023-06-26T10:14:07;2.37;;;1.50;;
72109;SDS011;59983;52.010;5.420;2023-06-26T10:16:44;5.70;;;1.60;;
72109;SDS011;59983;52.010;5.420;2023-06-26T10:19:13;3.38;;;1.98;;
72109;SDS011;59983;52.010;5.420;2023-06-26T10:21:42;2.70;;;1.55;;
72109;SDS011;59983;52.010;5.420;2023-06-26T10:24:10;2.35;;;1.27;;
72109;SDS011;59983;52.010;5.420;2023-06-26T10:26:42;2.77;;;1.77;;
72109;SDS011;59983;52.010;5.420;2023-06-26T10:29:11;3.63;;;1.50;;
72109;SDS011;59983;52.010;5.420;2023-06-26T10:31:42;3.58;;;1.55;;
72109;SDS011;59983;52.010;5.420;2023-06-26T10:34:12;2.13;;;1.48;;
72109;SDS011;59983;52.010;5.420;2023-06-26T10:36:39;3.95;;;1.70;;
72109;SDS011;59983;52.010;5.420;2023-06-26T10:39:06;5.10;;;1.50;;
72109;SDS011;59983;52.010;5.420;2023-06-26T10:41:36;4.82;;;1.60;;
72109;SDS011;59983;52.010;5.420;2023-06-26T10:44:22;3.40;;;1.48;;
72109;SDS011;59983;52.010;5.420;2023-06-26T10:46:51;2.40;;;1.90;;
72109;SDS011;59983;52.010;5.420;2023-06-26T10:49:26;1.80;;;1.40;;
72109;SDS011;59983;52.010;5.420;2023-06-26T10:51:55;2.30;;;1.33;;
72109;SDS011;59983;52.010;5.420;2023-06-26T10:54:27;1.92;;;1.50;;
72109;SDS011;59983;52.010;5.420;2023-06-26T10:56:55;3.05;;;1.60;;
72109;SDS011;59983;52.010;5.420;2023-06-26T10:59:26;3.28;;;1.83;;
72109;SDS011;59983;52.010;5.420;2023-06-26T11:01:54;2.50;;;1.88;;
72109;SDS011;59983;52.010;5.420;2023-06-26T11:04:44;3.37;;;2.07;;
72109;SDS011;59983;52.010;5.420;2023-06-26T11:07:24;2.13;;;1.67;;
72109;SDS011;59983;52.010;5.420;2023-06-26T11:09:55;5.20;;;1.40;;
72109;SDS011;59983;52.010;5.420;2023-06-26T11:12:33;9.80;;;2.10;;
72109;SDS011;59983;52.010;5.420;2023-06-26T11:15:09;5.95;;;1.30;;
72109;SDS011;59983;52.010;5.420;2023-06-26T11:17:36;3.20;;;1.70;;
72109;SDS011;59983;52.010;5.420;2023-06-26T11:20:07;5.65;;;1.63;;
72109;SDS011;59983;52.010;5.420;2023-06-26T11:22:42;3.97;;;1.65;;
72109;SDS011;59983;52.010;5.420;2023-06-26T11:25:09;3.55;;;1.30;;
72109;SDS011;59983;52.010;5.420;2023-06-26T11:27:43;6.93;;;1.70;;
72109;SDS011;59983;52.010;5.420;2023-06-26T11:30:10;2.43;;;2.00;;
72109;SDS011;59983;52.010;5.420;2023-06-26T11:32:48;1.55;;;1.30;;
72109;SDS011;59983;52.010;5.420;2023-06-26T11:35:24;6.95;;;1.58;;
72109;SDS011;59983;52.010;5.420;2023-06-26T11:37:57;2.58;;;1.60;;
72109;SDS011;59983;52.010;5.420;2023-06-26T11:40:33;8.18;;;2.45;;
72109;SDS011;59983;52.010;5.420;2023-06-26T11:43:02;1.57;;;1.00;;
72109;SDS011;59983;52.010;5.420;2023-06-26T11:45:30;2.28;;;1.20;;
72109;SDS011;59983;52.010;5.420;2023-06-26T11:47:58;5.50;;;1.38;;
72109;SDS011;59983;52.010;5.420;2023-06-26T11:50:26;2.65;;;1.38;;
72109;SDS011;59983;52.010;5.420;2023-06-26T11:52:53;4.38;;;1.65;;
72109;SDS011;59983;52.010;5.420;2023-06-26T11:55:22;1.77;;;1.33;;
72109;SDS011;59983;52.010;5.420;2023-06-26T11:57:49;2.72;;;1.15;;
72109;SDS011;59983;52.010;5.420;2023-06-26T12:00:18;2.42;;;1.38;;
72109;SDS011;59983;52.010;5.420;2023-06-26T12:02:46;2.45;;;1.27;;
72109;SDS011;59983;52.010;5.420;2023-06-26T12:05:14;3.88;;;1.38;;
72109;SDS011;59983;52.010;5.420;2023-06-26T12:07:42;1.50;;;1.20;;
72109;SDS011;59983;52.010;5.420;2023-06-26T12:10:10;1.77;;;1.55;;
72109;SDS011;59983;52.010;5.420;2023-06-26T12:12:38;6.07;;;1.40;;
72109;SDS011;59983;52.010;5.420;2023-06-26T12:15:06;1.63;;;1.52;;
72109;SDS011;59983;52.010;5.420;2023-06-26T12:17:36;1.52;;;1.38;;
72109;SDS011;59983;52.010;5.420;2023-06-26T12:20:22;2.33;;;1.30;;
72109;SDS011;59983;52.010;5.420;2023-06-26T12:22:51;23.92;;;1.88;;
72109;SDS011;59983;52.010;5.420;2023-06-26T12:25:22;2.03;;;1.13;;
72109;SDS011;59983;52.010;5.420;2023-06-26T12:27:50;3.35;;;1.35;;
72109;SDS011;59983;52.010;5.420;2023-06-26T12:30:16;1.70;;;1.10;;
72109;SDS011;59983;52.010;5.420;2023-06-26T12:32:46;1.77;;;1.50;;
72109;SDS011;59983;52.010;5.420;2023-06-26T12:35:13;5.75;;;1.25;;
72109;SDS011;59983;52.010;5.420;2023-06-26T12:37:41;3.13;;;1.02;;
72109;SDS011;59983;52.010;5.420;2023-06-26T12:40:19;2.53;;;1.23;;
72109;SDS011;59983;52.010;5.420;2023-06-26T12:42:49;4.00;;;0.75;;
72109;SDS011;59983;52.010;5.420;2023-06-26T12:45:16;2.53;;;0.70;;
72109;SDS011;59983;52.010;5.420;2023-06-26T12:48:10;6.50;;;1.05;;
72109;SDS011;59983;52.010;5.420;2023-06-26T12:50:47;5.40;;;0.80;;
72109;SDS011;59983;52.010;5.420;2023-06-26T12:53:16;2.22;;;1.00;;
72109;SDS011;59983;52.010;5.420;2023-06-26T12:55:43;3.22;;;1.15;;
72109;SDS011;59983;52.010;5.420;2023-06-26T12:58:09;4.70;;;0.87;;
72109;SDS011;59983;52.010;5.420;2023-06-26T13:00:36;1.80;;;1.67;;
72109;SDS011;59983;52.010;5.420;2023-06-26T13:03:03;2.85;;;0.77;;
72109;SDS011;59983;52.010;5.420;2023-06-26T13:05:30;5.15;;;0.93;;
72109;SDS011;59983;52.010;5.420;2023-06-26T13:07:56;3.40;;;0.98;;
72109;SDS011;59983;52.010;5.420;2023-06-26T13:10:24;1.77;;;0.90;;
72109;SDS011;59983;52.010;5.420;2023-06-26T13:12:53;4.60;;;0.60;;
72109;SDS011;59983;52.010;5.420;2023-06-26T13:15:20;5.95;;;0.52;;
72109;SDS011;59983;52.010;5.420;2023-06-26T13:17:46;1.05;;;0.40;;
72109;SDS011;59983;52.010;5.420;2023-06-26T13:20:13;3.28;;;0.70;;
72109;SDS011;59983;52.010;5.420;2023-06-26T13:22:40;3.10;;;0.70;;
72109;SDS011;59983;52.010;5.420;2023-06-26T13:25:06;1.30;;;0.60;;
72109;SDS011;59983;52.010;5.420;2023-06-26T13:27:34;3.22;;;0.75;;
72109;SDS011;59983;52.010;5.420;2023-06-26T13:30:01;4.80;;;0.73;;
72109;SDS011;59983;52.010;5.420;2023-06-26T13:32:28;1.40;;;0.60;;
72109;SDS011;59983;52.010;5.420;2023-06-26T13:34:55;5.00;;;0.60;;
72109;SDS011;59983;52.010;5.420;2023-06-26T13:37:21;2.13;;;0.55;;
72109;SDS011;59983;52.010;5.420;2023-06-26T13:39:48;10.55;;;0.88;;
72109;SDS011;59983;52.010;5.420;2023-06-26T13:42:16;9.15;;;1.15;;
72109;SDS011;59983;52.010;5.420;2023-06-26T13:44:44;3.17;;;0.60;;
72109;SDS011;59983;52.010;5.420;2023-06-26T13:47:26;1.80;;;0.50;;
72109;SDS011;59983;52.010;5.420;2023-06-26T13:49:53;7.15;;;0.57;;
72109;SDS011;59983;52.010;5.420;2023-06-26T13:52:19;2.90;;;0.55;;
72109;SDS011;59983;52.010;5.420;2023-06-26T13:54:46;4.47;;;0.65;;
72109;SDS011;59983;52.010;5.420;2023-06-26T13:57:13;3.40;;;0.68;;
72109;SDS011;59983;52.010;5.420;2023-06-26T13:59:39;3.13;;;0.70;;
72109;SDS011;59983;52.010;5.420;2023-06-26T14:02:07;2.42;;;0.55;;
72109;SDS011;59983;52.010;5.420;2023-06-26T14:04:34;5.60;;;0.75;;
72109;SDS011;59983;52.010;5.420;2023-06-26T14:07:01;1.92;;;0.68;;
72109;SDS011;59983;52.010;5.420;2023-06-26T14:09:28;1.48;;;0.52;;
72109;SDS011;59983;52.010;5.420;2023-06-26T14:11:55;2.67;;;0.80;;
72109;SDS011;59983;52.010;5.420;2023-06-26T14:14:22;2.95;;;0.70;;
72109;SDS011;59983;52.010;5.420;2023-06-26T14:16:48;1.10;;;0.50;;
72109;SDS011;59983;52.010;5.420;2023-06-26T14:19:16;3.50;;;0.63;;
72109;SDS011;59983;52.010;5.420;2023-06-26T14:21:43;2.78;;;0.70;;
72109;SDS011;59983;52.010;5.420;2023-06-26T14:24:10;4.57;;;0.90;;
72109;SDS011;59983;52.010;5.420;2023-06-26T14:26:36;6.60;;;0.70;;
72109;SDS011;59983;52.010;5.420;2023-06-26T14:29:04;8.65;;;1.30;;
72109;SDS011;59983;52.010;5.420;2023-06-26T14:31:31;10.57;;;1.77;;
72109;SDS011;59983;52.010;5.420;2023-06-26T14:33:58;1.05;;;0.80;;
72109;SDS011;59983;52.010;5.420;2023-06-26T14:36:25;2.00;;;1.17;;
72109;SDS011;59983;52.010;5.420;2023-06-26T14:38:53;3.30;;;0.88;;
72109;SDS011;59983;52.010;5.420;2023-06-26T14:41:20;1.90;;;1.10;;
72109;SDS011;59983;52.010;5.420;2023-06-26T14:43:48;2.13;;;1.20;;
72109;SDS011;59983;52.010;5.420;2023-06-26T14:46:15;2.80;;;0.85;;
72109;SDS011;59983;52.010;5.420;2023-06-26T14:48:42;3.13;;;1.40;;
72109;SDS011;59983;52.010;5.420;2023-06-26T14:51:08;2.45;;;1.40;;
72109;SDS011;59983;52.010;5.420;2023-06-26T14:53:35;2.35;;;1.20;;
72109;SDS011;59983;52.010;5.420;2023-06-26T14:56:01;3.08;;;1.30;;